createdAt,value
2018-06-01T00:00:19.393Z,20.28
2018-06-01T00:02:46.960Z,20.24
2018-06-01T00:05:15.465Z,20.21
2018-06-01T00:07:43.135Z,20.17
2018-06-01T00:10:10.765Z,20.14
2018-06-01T00:12:38.411Z,20.12
2018-06-01T00:15:06.032Z,20.11
2018-06-01T00:17:33.833Z,20.11
2018-06-01T00:20:01.484Z,20.08
2018-06-01T00:22:29.350Z,20.08
2018-06-01T00:24:56.913Z,20.01
2018-06-01T00:27:24.513Z,19.95
2018-06-01T00:29:52.158Z,19.92
2018-06-01T00:32:20.063Z,19.87
2018-06-01T00:34:47.667Z,19.85
2018-06-01T00:37:15.231Z,19.83
2018-06-01T00:39:43.071Z,19.82
2018-06-01T00:42:10.670Z,19.82
2018-06-01T00:44:38.352Z,19.82
2018-06-01T00:47:06.327Z,19.79
2018-06-01T00:49:34.140Z,19.78
2018-06-01T00:52:01.804Z,19.80
2018-06-01T00:54:41.279Z,19.83
2018-06-01T00:57:09.144Z,19.84
2018-06-01T00:59:36.826Z,19.85
2018-06-01T01:02:04.796Z,19.85
2018-06-01T01:04:32.452Z,19.86
2018-06-01T01:07:00.106Z,19.86
2018-06-01T01:09:28.073Z,19.85
2018-06-01T01:11:56.269Z,19.85
2018-06-01T01:14:25.901Z,19.84
2018-06-01T01:16:53.640Z,19.83
2018-06-01T01:19:21.307Z,19.83
2018-06-01T01:21:49.056Z,19.82
2018-06-01T01:24:16.688Z,19.81
2018-06-01T01:26:44.329Z,19.79
2018-06-01T01:29:11.920Z,19.78
2018-06-01T01:31:39.669Z,19.76
2018-06-01T01:34:07.372Z,19.74
2018-06-01T01:36:35.198Z,19.73
2018-06-01T01:39:02.941Z,19.71
2018-06-01T01:41:30.570Z,19.70
2018-06-01T01:43:58.436Z,19.66
2018-06-01T01:46:26.119Z,19.65
2018-06-01T01:48:53.878Z,19.63
2018-06-01T01:51:21.777Z,19.60
2018-06-01T01:53:49.635Z,19.60
2018-06-01T01:56:17.478Z,19.59
2018-06-01T01:58:45.092Z,19.57
2018-06-01T02:01:12.749Z,19.55
2018-06-01T02:03:40.349Z,19.55
2018-06-01T02:06:08.444Z,19.55
2018-06-01T02:08:36.476Z,19.55
2018-06-01T02:11:04.271Z,19.53
2018-06-01T02:13:31.893Z,19.51
2018-06-01T02:15:59.930Z,19.49
2018-06-01T02:18:27.531Z,19.47
2018-06-01T02:20:55.200Z,19.44
2018-06-01T02:23:23.497Z,19.44
2018-06-01T02:25:51.058Z,19.43
2018-06-01T02:28:18.624Z,19.39
2018-06-01T02:30:46.225Z,19.34
2018-06-01T02:33:13.885Z,19.30
2018-06-01T02:35:41.655Z,19.29
2018-06-01T02:38:09.332Z,19.28
2018-06-01T02:40:36.893Z,19.27
2018-06-01T02:43:04.940Z,19.27
2018-06-01T02:45:32.505Z,19.25
2018-06-01T02:48:00.075Z,19.24
2018-06-01T02:50:27.685Z,19.24
2018-06-01T02:52:55.497Z,19.24
2018-06-01T02:55:23.068Z,19.23
2018-06-01T02:57:50.657Z,19.23
2018-06-01T03:00:18.451Z,19.20
2018-06-01T03:02:46.107Z,19.14
2018-06-01T03:05:13.747Z,19.07
2018-06-01T03:07:41.376Z,19.03
2018-06-01T03:10:09.004Z,19.00
2018-06-01T03:12:36.578Z,18.95
2018-06-01T03:15:04.178Z,18.90
2018-06-01T03:17:32.137Z,18.89
2018-06-01T03:20:00.305Z,18.91
2018-06-01T03:22:28.485Z,18.89
2018-06-01T03:24:56.552Z,18.87
2018-06-01T03:27:24.561Z,18.85
2018-06-01T03:29:52.549Z,18.83
2018-06-01T03:32:20.776Z,18.80
2018-06-01T03:34:48.503Z,18.79
2018-06-01T03:37:16.163Z,18.75
2018-06-01T03:39:44.074Z,18.72
2018-06-01T03:42:11.681Z,18.70
2018-06-01T03:44:39.313Z,18.71
2018-06-01T03:47:06.946Z,18.69
2018-06-01T03:49:34.514Z,18.71
2018-06-01T03:52:02.218Z,18.72
2018-06-01T03:54:29.856Z,18.71
2018-06-01T03:56:57.717Z,18.70
2018-06-01T03:59:25.309Z,18.70
2018-06-01T04:01:52.878Z,18.71
2018-06-01T04:04:20.710Z,18.70
2018-06-01T04:06:48.266Z,18.69
2018-06-01T04:09:15.833Z,18.71
2018-06-01T04:11:43.429Z,18.70
2018-06-01T04:14:11.111Z,18.69
2018-06-01T04:16:39.155Z,18.67
2018-06-01T04:19:06.726Z,18.67
2018-06-01T04:21:34.299Z,18.68
2018-06-01T04:24:02.100Z,18.70
2018-06-01T04:26:29.724Z,18.71
2018-06-01T04:28:57.292Z,18.73
2018-06-01T04:31:24.891Z,18.75
2018-06-01T04:33:52.836Z,18.72
2018-06-01T04:36:20.649Z,18.74
2018-06-01T04:38:48.279Z,18.75
2018-06-01T04:41:15.874Z,18.76
2018-06-01T04:43:43.440Z,18.79
2018-06-01T04:46:11.100Z,18.81
2018-06-01T04:48:38.902Z,18.83
2018-06-01T04:51:06.896Z,18.87
2018-06-01T04:53:34.481Z,18.92
2018-06-01T04:56:02.060Z,19.00
2018-06-01T04:58:29.719Z,19.02
2018-06-01T05:00:57.309Z,19.04
2018-06-01T05:03:24.953Z,19.09
2018-06-01T05:05:52.605Z,19.15
2018-06-01T05:08:20.240Z,19.22
2018-06-01T05:10:47.826Z,19.27
2018-06-01T05:13:15.605Z,19.31
2018-06-01T05:15:43.193Z,19.37
2018-06-01T05:18:10.774Z,19.41
2018-06-01T05:20:38.466Z,19.46
2018-06-01T05:23:06.081Z,19.52
2018-06-01T05:25:33.695Z,19.59
2018-06-01T05:28:01.364Z,19.68
2018-06-01T05:30:29.192Z,19.77
2018-06-01T05:32:56.803Z,19.85
2018-06-01T05:35:24.759Z,19.93
2018-06-01T05:37:52.616Z,20.03
2018-06-01T05:40:20.569Z,20.08
2018-06-01T05:42:48.257Z,20.16
2018-06-01T05:45:15.928Z,20.27
2018-06-01T05:47:43.681Z,20.37
2018-06-01T05:50:11.365Z,20.45
2018-06-01T05:52:39.267Z,20.52
2018-06-01T05:55:06.980Z,20.62
2018-06-01T05:57:34.870Z,20.71
2018-06-01T06:00:02.965Z,20.76
2018-06-01T06:02:31.353Z,20.86
2018-06-01T06:04:59.470Z,20.94
2018-06-01T06:07:27.702Z,21.02
2018-06-01T06:09:55.941Z,21.10
2018-06-01T06:12:23.857Z,21.18
2018-06-01T06:14:51.628Z,21.32
2018-06-01T06:17:19.373Z,21.36
2018-06-01T06:19:47.202Z,21.45
2018-06-01T06:22:14.933Z,21.49
2018-06-01T06:24:42.691Z,21.56
2018-06-01T06:27:10.756Z,21.62
2018-06-01T06:29:38.702Z,21.73
2018-06-01T06:32:06.454Z,21.83
2018-06-01T06:34:34.301Z,21.94
2018-06-01T06:37:02.177Z,22.03
2018-06-01T06:39:30.006Z,22.12
2018-06-01T06:41:57.692Z,22.16
2018-06-01T06:44:25.308Z,22.25
2018-06-01T06:46:52.946Z,22.36
2018-06-01T06:49:20.558Z,22.46
2018-06-01T06:51:48.317Z,22.58
2018-06-01T06:54:15.891Z,22.68
2018-06-01T06:56:43.464Z,22.76
2018-06-01T06:59:11.285Z,22.84
2018-06-01T07:01:39.019Z,22.92
2018-06-01T07:04:06.643Z,23.07
2018-06-01T07:06:34.244Z,23.16
2018-06-01T07:09:01.978Z,23.29
2018-06-01T07:11:29.657Z,23.43
2018-06-01T07:13:57.228Z,23.52
2018-06-01T07:16:25.152Z,23.58
2018-06-01T07:18:53.220Z,23.64
2018-06-01T07:21:21.141Z,23.73
2018-06-01T07:23:49.049Z,23.86
2018-06-01T07:26:16.850Z,23.95
2018-06-01T07:28:44.430Z,24.09
2018-06-01T07:31:12.237Z,24.15
2018-06-01T07:33:39.950Z,24.22
2018-06-01T07:36:07.624Z,24.28
2018-06-01T07:38:35.258Z,24.40
2018-06-01T07:41:02.856Z,24.43
2018-06-01T07:43:30.511Z,24.51
2018-06-01T07:45:58.152Z,24.54
2018-06-01T07:48:26.245Z,24.55
2018-06-01T07:50:53.825Z,24.58
2018-06-01T07:53:21.666Z,24.64
2018-06-01T07:55:49.642Z,24.72
2018-06-01T07:58:17.320Z,24.87
2018-06-01T08:00:44.976Z,24.99
2018-06-01T08:03:13.522Z,25.17
2018-06-01T08:05:41.099Z,25.36
2018-06-01T08:08:08.752Z,25.52
2018-06-01T08:10:36.383Z,25.68
2018-06-01T08:13:03.977Z,25.73
2018-06-01T08:15:31.962Z,25.79
2018-06-01T08:17:59.587Z,25.86
2018-06-01T08:20:27.196Z,25.97
2018-06-01T08:22:54.870Z,26.07
2018-06-01T08:25:22.449Z,26.24
2018-06-01T08:27:50.041Z,26.38
2018-06-01T08:30:17.722Z,26.50
2018-06-01T08:32:45.340Z,26.58
2018-06-01T08:35:12.957Z,26.67
2018-06-01T08:37:40.578Z,26.81
2018-06-01T08:40:08.187Z,26.84
2018-06-01T08:42:35.928Z,26.94
2018-06-01T08:45:03.752Z,27.14
2018-06-01T08:47:31.566Z,27.28
2018-06-01T08:49:59.157Z,27.39
2018-06-01T08:52:26.799Z,27.36
2018-06-01T08:54:54.425Z,27.43
2018-06-01T08:57:22.310Z,27.41
2018-06-01T08:59:49.941Z,27.43
2018-06-01T09:05:10.705Z,27.65
2018-06-01T09:07:38.276Z,27.67
2018-06-01T09:10:05.946Z,27.79
2018-06-01T09:12:33.801Z,27.83
2018-06-01T09:15:01.398Z,27.86
2018-06-01T09:17:28.969Z,27.91
2018-06-01T09:19:56.674Z,27.90
2018-06-01T09:22:24.296Z,27.90
2018-06-01T09:24:51.941Z,27.93
2018-06-01T09:27:19.788Z,27.90
2018-06-01T09:29:47.595Z,27.99
2018-06-01T09:32:15.181Z,27.98
2018-06-01T09:34:42.902Z,27.97
2018-06-01T09:37:10.480Z,27.87
2018-06-01T09:39:38.298Z,27.95
2018-06-01T09:42:05.948Z,28.05
2018-06-01T09:44:33.517Z,28.11
2018-06-01T09:47:01.174Z,28.17
2018-06-01T09:49:28.752Z,28.32
2018-06-01T09:51:56.312Z,28.48
2018-06-01T09:54:23.915Z,28.66
2018-06-01T09:56:51.512Z,28.85
2018-06-01T09:59:19.136Z,28.91
2018-06-01T10:01:46.733Z,29.14
2018-06-01T10:04:14.352Z,29.21
2018-06-01T10:06:41.996Z,29.28
2018-06-01T10:09:09.621Z,29.36
2018-06-01T10:11:37.415Z,29.54
2018-06-01T10:14:05.118Z,29.61
2018-06-01T10:16:32.747Z,29.72
2018-06-01T10:19:00.314Z,29.84
2018-06-01T10:21:27.906Z,29.90
2018-06-01T10:23:55.467Z,30.01
2018-06-01T10:26:23.288Z,29.89
2018-06-01T10:28:50.908Z,29.80
2018-06-01T10:31:18.476Z,29.75
2018-06-01T10:33:46.709Z,29.80
2018-06-01T10:36:14.293Z,29.81
2018-06-01T10:38:42.090Z,29.97
2018-06-01T10:41:09.910Z,30.00
2018-06-01T10:43:37.476Z,30.04
2018-06-01T10:46:05.466Z,30.16
2018-06-01T10:48:33.084Z,30.21
2018-06-01T10:51:00.893Z,30.33
2018-06-01T10:53:28.600Z,30.51
2018-06-01T10:55:56.396Z,30.65
2018-06-01T10:58:23.965Z,30.75
2018-06-01T11:00:51.551Z,30.81
2018-06-01T11:03:19.350Z,30.85
2018-06-01T11:05:47.334Z,30.79
2018-06-01T11:08:14.906Z,30.80
2018-06-01T11:10:42.472Z,30.81
2018-06-01T11:13:10.071Z,30.92
2018-06-01T11:15:37.632Z,31.03
2018-06-01T11:18:05.225Z,31.04
2018-06-01T11:20:32.848Z,30.89
2018-06-01T11:23:00.500Z,30.78
2018-06-01T11:25:28.104Z,30.76
2018-06-01T11:27:55.735Z,30.78
2018-06-01T11:30:23.304Z,30.88
2018-06-01T11:32:50.868Z,31.05
2018-06-01T11:35:18.565Z,31.22
2018-06-01T11:37:46.142Z,31.33
2018-06-01T11:40:13.713Z,31.39
2018-06-01T11:42:41.422Z,31.40
2018-06-01T11:45:08.990Z,31.59
2018-06-01T11:47:36.607Z,31.85
2018-06-01T11:50:04.437Z,31.84
2018-06-01T11:52:31.997Z,31.80
2018-06-01T11:54:59.703Z,31.88
2018-06-01T11:57:27.317Z,31.93
2018-06-01T11:59:55.139Z,31.93
2018-06-01T12:02:22.743Z,31.83
2018-06-01T12:04:50.309Z,31.81
2018-06-01T12:07:18.127Z,31.88
2018-06-01T12:09:45.717Z,32.04
2018-06-01T12:12:13.315Z,32.27
2018-06-01T12:14:40.875Z,32.47
2018-06-01T12:17:08.471Z,32.69
2018-06-01T12:19:36.045Z,32.83
2018-06-01T12:22:03.745Z,32.81
2018-06-01T12:24:31.316Z,32.58
2018-06-01T12:26:58.909Z,32.33
2018-06-01T12:29:26.564Z,32.09
2018-06-01T12:31:54.343Z,31.93
2018-06-01T12:34:21.909Z,31.99
2018-06-01T12:36:49.549Z,31.92
2018-06-01T12:39:17.120Z,31.88
2018-06-01T12:41:44.685Z,31.91
2018-06-01T12:44:12.278Z,31.93
2018-06-01T12:46:39.877Z,31.97
2018-06-01T12:49:07.640Z,32.06
2018-06-01T12:51:35.282Z,32.12
2018-06-01T12:54:02.881Z,32.14
2018-06-01T12:56:31.121Z,32.16
2018-06-01T12:58:58.704Z,32.27
2018-06-01T13:01:26.566Z,32.28
2018-06-01T13:03:54.259Z,32.29
2018-06-01T13:06:21.831Z,32.15
2018-06-01T13:08:49.676Z,32.01
2018-06-01T13:11:17.278Z,31.86
2018-06-01T13:13:44.986Z,31.71
2018-06-01T13:16:12.544Z,31.81
2018-06-01T13:18:40.166Z,31.85
2018-06-01T13:21:08.223Z,31.83
2018-06-01T13:23:35.812Z,31.79
2018-06-01T13:26:03.469Z,31.79
2018-06-01T13:28:31.075Z,31.81
2018-06-01T13:30:58.710Z,31.82
2018-06-01T13:33:26.968Z,31.89
2018-06-01T13:35:54.539Z,31.27
2018-06-01T13:38:22.417Z,30.82
2018-06-01T13:40:50.285Z,30.49
2018-06-01T13:43:17.851Z,30.04
2018-06-01T13:45:45.826Z,29.75
2018-06-01T13:48:13.507Z,29.51
2018-06-01T13:50:41.513Z,29.15
2018-06-01T13:53:09.121Z,28.63
2018-06-01T13:55:36.977Z,28.16
2018-06-01T13:58:04.558Z,27.91
2018-06-01T14:00:32.204Z,27.10
2018-06-01T14:06:22.087Z,24.25
2018-06-01T14:11:30.611Z,23.00
2018-06-01T14:16:38.013Z,22.46
2018-06-01T14:19:07.801Z,21.95
2018-06-01T14:21:36.114Z,21.62
2018-06-01T14:24:03.719Z,21.37
2018-06-01T14:26:31.587Z,21.19
2018-06-01T14:28:59.714Z,21.37
2018-06-01T14:31:28.107Z,21.65
2018-06-01T14:33:55.946Z,21.80
2018-06-01T14:36:23.833Z,21.56
2018-06-01T14:38:52.406Z,21.40
2018-06-01T14:41:20.036Z,21.49
2018-06-01T14:43:47.688Z,21.71
2018-06-01T14:46:15.289Z,21.88
2018-06-01T14:48:43.131Z,22.08
2018-06-01T14:51:10.745Z,22.20
2018-06-01T14:53:39.157Z,22.23
2018-06-01T14:56:08.066Z,22.21
2018-06-01T14:58:35.813Z,22.25
2018-06-01T15:01:15.648Z,22.30
2018-06-01T15:06:37.631Z,22.22
2018-06-01T15:09:16.303Z,22.07
2018-06-01T15:18:15.063Z,21.68
2018-06-01T15:20:43.848Z,21.58
2018-06-01T15:23:12.167Z,21.43
2018-06-01T15:25:40.117Z,21.24
2018-06-01T15:28:08.617Z,21.09
2018-06-01T15:30:41.605Z,21.02
2018-06-01T15:33:13.680Z,20.92
2018-06-01T15:35:44.238Z,20.88
2018-06-01T15:41:07.884Z,20.70
2018-06-01T15:43:35.910Z,20.63
2018-06-01T15:46:03.968Z,20.52
2018-06-01T15:48:31.873Z,20.47
2018-06-01T15:50:59.577Z,20.42
2018-06-01T15:53:27.660Z,20.36
2018-06-01T15:55:55.542Z,20.35
2018-06-01T15:58:28.227Z,20.32
2018-06-01T16:00:57.031Z,20.34
2018-06-01T16:03:25.421Z,20.39
2018-06-01T16:05:58.034Z,20.44
2018-06-01T16:08:30.445Z,20.42
2018-06-01T16:10:58.193Z,20.37
2018-06-01T16:13:32.989Z,20.36
2018-06-01T16:16:03.869Z,20.35
2018-06-01T16:18:51.226Z,20.32
2018-06-01T16:21:23.573Z,20.31
2018-06-01T16:23:53.743Z,20.35
2018-06-01T16:26:26.627Z,20.39
2018-06-01T16:28:56.922Z,20.40
2018-06-01T16:31:24.673Z,20.44
2018-06-01T16:33:52.366Z,20.45
2018-06-01T16:36:20.081Z,20.44
2018-06-01T16:38:47.727Z,20.35
2018-06-01T16:41:15.693Z,20.34
2018-06-01T16:43:43.542Z,20.36
2018-06-01T16:46:11.185Z,20.36
2018-06-01T16:48:39.090Z,20.39
2018-06-01T16:51:06.730Z,20.40
2018-06-01T16:53:34.357Z,20.42
2018-06-01T16:56:01.977Z,20.31
2018-06-01T16:58:29.591Z,20.35
2018-06-01T17:00:57.202Z,20.38
2018-06-01T17:03:24.786Z,20.41
2018-06-01T17:05:52.385Z,20.40
2018-06-01T17:08:19.972Z,20.47
2018-06-01T17:10:47.687Z,20.52
2018-06-01T17:13:15.500Z,20.55
2018-06-01T17:15:43.096Z,20.58
2018-06-01T17:18:10.939Z,20.60
2018-06-01T17:20:38.529Z,20.64
2018-06-01T17:23:06.157Z,20.69
2018-06-01T17:25:33.746Z,20.76
2018-06-01T17:28:01.332Z,20.79
2018-06-01T17:30:28.931Z,20.82
2018-06-01T17:32:56.636Z,20.91
2018-06-01T17:35:24.303Z,20.96
2018-06-01T17:37:52.270Z,20.99
2018-06-01T17:40:19.960Z,21.02
2018-06-01T17:42:47.538Z,21.02
2018-06-01T17:45:15.187Z,21.01
2018-06-01T17:47:42.918Z,21.04
2018-06-01T17:50:10.510Z,21.12
2018-06-01T17:52:38.090Z,21.17
2018-06-01T17:55:06.272Z,21.23
2018-06-01T17:57:33.902Z,21.26
2018-06-01T18:00:01.730Z,21.30
2018-06-01T18:02:29.466Z,21.32
2018-06-01T18:04:57.271Z,21.33
2018-06-01T18:07:25.086Z,21.32
2018-06-01T18:09:52.681Z,21.31
2018-06-01T18:12:20.620Z,21.28
2018-06-01T18:14:48.189Z,21.27
2018-06-01T18:17:15.753Z,21.28
2018-06-01T18:19:43.347Z,21.27
2018-06-01T18:22:10.917Z,21.25
2018-06-01T18:24:38.747Z,21.23
2018-06-01T18:27:06.328Z,21.25
2018-06-01T18:29:33.897Z,21.23
2018-06-01T18:32:01.488Z,21.22
2018-06-01T18:34:29.205Z,21.18
2018-06-01T18:36:56.780Z,21.19
2018-06-01T18:39:24.349Z,21.21
2018-06-01T18:41:52.171Z,21.25
2018-06-01T18:44:19.978Z,21.28
2018-06-01T18:46:47.575Z,21.29
2018-06-01T18:49:15.146Z,21.31
2018-06-01T18:51:42.780Z,21.31
2018-06-01T18:54:10.593Z,21.31
2018-06-01T18:56:38.391Z,21.32
2018-06-01T18:59:06.349Z,21.33
2018-06-01T19:01:33.928Z,21.31
2018-06-01T19:04:01.546Z,21.26
2018-06-01T19:06:29.142Z,21.25
2018-06-01T19:08:56.714Z,21.24
2018-06-01T19:11:24.315Z,21.24
2018-06-01T19:13:51.945Z,21.23
2018-06-01T19:16:19.757Z,21.22
2018-06-01T19:18:47.330Z,21.20
2018-06-01T19:21:15.274Z,21.22
2018-06-01T19:23:42.860Z,21.22
2018-06-01T19:26:10.513Z,21.18
2018-06-01T19:28:38.234Z,21.15
2018-06-01T19:31:05.813Z,21.14
2018-06-01T19:33:33.451Z,21.13
2018-06-01T19:36:01.314Z,21.13
2018-06-01T19:38:28.892Z,21.11
2018-06-01T19:40:56.464Z,21.10
2018-06-01T19:43:24.137Z,21.07
2018-06-01T19:45:51.760Z,21.06
2018-06-01T19:48:19.333Z,21.00
2018-06-01T19:50:46.990Z,20.95
2018-06-01T19:53:14.566Z,20.89
2018-06-01T19:55:42.179Z,20.84
2018-06-01T19:58:09.788Z,20.82
2018-06-01T20:00:37.373Z,20.81
2018-06-01T20:03:04.965Z,20.82
2018-06-01T20:05:32.799Z,20.80
2018-06-01T20:08:00.359Z,20.81
2018-06-01T20:10:28.248Z,20.80
2018-06-01T20:12:55.940Z,20.72
2018-06-01T20:15:23.592Z,20.70
2018-06-01T20:17:51.505Z,20.72
2018-06-01T20:20:19.321Z,20.72
2018-06-01T20:22:46.884Z,20.69
2018-06-01T20:25:14.573Z,20.68
2018-06-01T20:27:42.148Z,20.69
2018-06-01T20:30:10.010Z,20.71
2018-06-01T20:32:37.647Z,20.71
2018-06-01T20:35:05.307Z,20.68
2018-06-01T20:37:32.928Z,20.56
2018-06-01T20:40:00.601Z,20.54
2018-06-01T20:42:28.545Z,20.51
2018-06-01T20:44:56.179Z,20.46
2018-06-01T20:47:23.870Z,20.38
2018-06-01T20:49:51.783Z,20.31
2018-06-01T20:52:19.425Z,20.27
2018-06-01T20:54:48.053Z,20.22
2018-06-01T20:57:15.872Z,20.20
2018-06-01T20:59:43.463Z,20.17
2018-06-01T21:02:11.381Z,20.12
2018-06-01T21:04:38.983Z,20.03
2018-06-01T21:07:06.545Z,19.96
2018-06-01T21:09:34.202Z,19.91
2018-06-01T21:12:01.797Z,19.86
2018-06-01T21:14:29.420Z,19.79
2018-06-01T21:16:57.022Z,19.72
2018-06-01T21:19:24.656Z,19.69
2018-06-01T21:21:52.256Z,19.64
2018-06-01T21:24:19.820Z,19.60
2018-06-01T21:26:47.920Z,19.57
2018-06-01T21:29:15.488Z,19.56
2018-06-01T21:31:43.067Z,19.57
2018-06-01T21:34:10.759Z,19.58
2018-06-01T21:36:38.329Z,19.59
2018-06-01T21:39:06.918Z,19.60
2018-06-01T21:41:34.483Z,19.62
2018-06-01T21:44:02.057Z,19.63
2018-06-01T21:46:29.912Z,19.66
2018-06-01T21:48:57.475Z,19.62
2018-06-01T21:51:25.182Z,19.59
2018-06-01T21:53:52.992Z,19.57
2018-06-01T21:56:20.557Z,19.55
2018-06-01T21:58:48.163Z,19.56
2018-06-01T22:01:15.849Z,19.58
2018-06-01T22:03:43.429Z,19.57
2018-06-01T22:06:11.050Z,19.58
2018-06-01T22:08:38.634Z,19.58
2018-06-01T22:11:06.481Z,19.59
2018-06-01T22:13:34.107Z,19.58
2018-06-01T22:16:02.076Z,19.51
2018-06-01T22:18:29.799Z,19.49
2018-06-01T22:20:57.411Z,19.51
2018-06-01T22:23:25.392Z,19.47
2018-06-01T22:25:53.041Z,19.45
2018-06-01T22:28:20.680Z,19.35
2018-06-01T22:30:48.302Z,19.19
2018-06-01T22:33:15.896Z,19.10
2018-06-01T22:35:43.508Z,19.05
2018-06-01T22:38:11.084Z,19.04
2018-06-01T22:40:38.765Z,19.03
2018-06-01T22:43:06.436Z,19.01
2018-06-01T22:45:34.043Z,18.99
2018-06-01T22:48:01.714Z,18.94
2018-06-01T22:50:29.476Z,18.90
2018-06-01T22:52:57.374Z,18.87
2018-06-01T22:55:25.262Z,18.87
2018-06-01T22:57:53.368Z,18.80
2018-06-01T23:00:45.848Z,18.72
2018-06-01T23:03:13.480Z,18.72
2018-06-01T23:05:41.246Z,18.66
2018-06-01T23:08:08.860Z,18.65
2018-06-01T23:10:36.536Z,18.64
2018-06-01T23:13:04.477Z,18.66
2018-06-01T23:15:32.489Z,18.66
2018-06-01T23:18:00.512Z,18.65
2018-06-01T23:20:28.318Z,18.66
2018-06-01T23:22:56.932Z,18.66
2018-06-01T23:25:24.560Z,18.64
2018-06-01T23:27:52.129Z,18.61
2018-06-01T23:30:20.077Z,18.57
2018-06-01T23:32:47.641Z,18.56
2018-06-01T23:35:15.288Z,18.55
2018-06-01T23:37:43.291Z,18.53
2018-06-01T23:40:10.873Z,18.49
2018-06-01T23:42:38.526Z,18.46
2018-06-01T23:45:06.176Z,18.46
2018-06-01T23:47:33.762Z,18.42
2018-06-01T23:50:01.342Z,18.39
2018-06-01T23:52:29.020Z,18.36
2018-06-01T23:54:56.652Z,18.37
2018-06-01T23:57:24.490Z,18.34
2018-06-01T23:59:52.114Z,18.32
